Detalii statie AGRALMIXT [00001CED]

Toti senzorii

Date Temperatura solului [C]Precipitatii [mm]Voltaj baterie [mV]Leaf Wetness [Min]HC Air temperature [C]HC Relative humidity [%]Punctul de roua [C]
medieminmaxsumaultimatimpmedieminmaxmediemediemin
2020-01-21 22:00:00 0 6728 0.93 -0.12 2.34 57.75 -6.5 -6.7
2020-01-21 23:00:00 0 6728 1.09 0.1 2.31 56.68 -6.5 -7.1
2020-01-22 00:00:00 0 6728 1.52 0.65 3.31 56.57 -6.2 -6.5
2020-01-22 01:00:00 0 6718 1.44 0.11 3.87 55.32 -6.5 -7
2020-01-22 02:00:00 0 6718 0.92 -0.26 3.25 59.11 -6.2 -7
2020-01-22 03:00:00 0 6708 -1.23 -2.81 0.66 67.57 -6.4 -7.5
2020-01-22 04:00:00 0 6708 -2.81 -4.16 -1.92 75.71 -6.4 -7.5
2020-01-22 05:00:00 0 6698 -3.55 -4.16 -2.91 81.13 -6.2 -6.8
2020-01-22 06:00:00 0 6698 -4.78 -5.43 -4.16 86.41 -6.6 -7.6
2020-01-22 07:00:00 0 6678 -5.35 -6.38 -4.38 89.19 -6.7 -7.6
2020-01-22 08:00:00 0 6678 -5.7 -6.39 -5.27 93.71 -6.4 -7.1
2020-01-22 09:00:00 0 7060 -6.01 -6.49 -5.02 94.75 -6.6 -7.2
2020-01-22 10:00:00 0 7352 0.33 -4.41 5.12 85.86 -1.9 -4.7
2020-01-22 11:00:00 0 7352 6.79 5.64 8.2 51.89 -2.4 -2.9
2020-01-22 12:00:00 0 7342 10.13 8.53 12.18 43.25 -1.9 -2.8
2020-01-22 13:00:00 0 7352 12.55 12.06 13.23 30.56 -4.4 -6.4
2020-01-22 14:00:00 0 7342 12.58 11.36 13.49 26.92 -6.1 -8
2020-01-22 15:00:00 0 7314 10.8 10.39 11.17 28.6 -6.8 -7.3
2020-01-22 16:00:00 0 7108 10.15 9.04 11.4 30.64 -6.5 -7.3
2020-01-22 17:00:00 0.2 6904 8.1 7.22 8.9 36.95 -5.8 -6.4
2020-01-22 18:00:00 0 6806 6.68 6.16 7.08 44.12 -4.7 -4.9
2020-01-22 19:00:00 0 6766 5.82 5.25 6.19 48.35 -4.3 -4.9
2020-01-22 20:00:00 0 6738 4.82 4.44 5.22 52.64 -4.1 -4.4
2020-01-22 21:00:00 0 6738 4.35 4.2 4.52 58.29 -3.1 -3.6
2020-01-22 22:00:00 0 6738 4.08 3.93 4.24 60.95 -2.8 -2.9
2020-01-22 23:00:00 0 6738 3.97 3.88 4.05 63.02 -2.4 -2.6
2020-01-23 00:00:00 0 6728 3.86 3.7 4 65.39 -2 -2.3
2020-01-23 01:00:00 0 6718 3.21 3.02 3.54 67.53 -2.2 -2.4
2020-01-23 02:00:00 0 6728 3.22 3.02 3.44 69.24 -1.8 -2.3
2020-01-23 03:00:00 0 6718 2.52 1.94 2.99 75.5 -1.4 -1.6
2020-01-23 04:00:00 0 6718 1.93 1.65 2.12 81.56 -0.8 -1.3
2020-01-23 05:00:00 0 6718 1.98 1.67 2.44 75.84 -1.8 -2.1
2020-01-23 06:00:00 0 6708 2.47 2.33 2.59 71.89 -2.1 -2.2
2020-01-23 07:00:00 0 6708 2.67 2.56 2.79 70.84 -2.1 -2.2
2020-01-23 08:00:00 0 6708 2.73 2.68 2.78 70.14 -2.1 -2.5
2020-01-23 09:00:00 0 6748 2.96 2.68 3.19 65.88 -2.8 -3.4
2020-01-23 10:00:00 0 6874 3.3 3.12 3.42 60.81 -3.5 -3.8
2020-01-23 11:00:00 0 7362 4.39 3.83 4.94 57.14 -3.3 -3.8
2020-01-23 12:00:00 0 7352 4.74 4.5 5.26 52.76 -4 -4.8
2020-01-23 13:00:00 0 7352 4.96 4.43 5.43 48.48 -5 -5.9
2020-01-23 14:00:00 0 7314 5.24 4.53 5.69 47.12 -5.1 -5.8
2020-01-23 15:00:00 0 7314 4.58 4.25 5.14 46.86 -5.9 -6.8
2020-01-23 16:00:00 0 7226 4.29 3.85 5.05 49.24 -5.4 -5.9
2020-01-23 17:00:00 0.8 6962 3.35 2.81 3.8 50.87 -5.9 -6.4
2020-01-23 18:00:00 0 6826 2.57 2.14 3.02 53.87 -5.8 -6.1
2020-01-23 19:00:00 0 6748 2.06 1.7 2.35 53.97 -6.3 -6.6
2020-01-23 20:00:00 0 6728 1.21 0.79 1.95 58.87 -6 -6.3